Time;durP1;ratioP1;P1;durP2;ratioP2;P2;SDS_P1;SDS_P2;PMS_P1;PMS_P2;Temp;Humidity;BMP_temperature;BMP_pressure;BME280_temperature;BME280_humidity;BME280_pressure;Samples;Min_cycle;Max_cycle;Signal;HPM_P1;HPM_P2
2020/12/09 00:00:21;;;;;;;11.90;10.40;;;5.70;99.90;;;;;;6188285;28;20470;-65
2020/12/09 00:03:24;;;;;;;10.50;8.60;;;5.60;99.90;;;;;;6192830;28;20474;-68
2020/12/09 00:06:26;;;;;;;10.70;9.60;;;5.60;99.90;;;;;;6187808;28;20481;-61
2020/12/09 00:09:28;;;;;;;10.60;9.50;;;5.70;99.90;;;;;;6190191;28;20474;-64
2020/12/09 00:12:31;;;;;;;11.20;9.73;;;5.60;99.90;;;;;;6191936;28;20476;-63
2020/12/09 00:15:35;;;;;;;9.43;8.50;;;5.60;99.90;;;;;;6192450;28;20483;-63
2020/12/09 00:18:37;;;;;;;10.80;9.20;;;5.40;99.90;;;;;;6191644;28;20480;-66
2020/12/09 00:21:40;;;;;;;10.20;8.67;;;5.40;99.90;;;;;;6190358;28;20469;-61
2020/12/09 00:24:45;;;;;;;10.67;9.27;;;5.30;99.90;;;;;;6191997;28;20823;-61
2020/12/09 00:27:47;;;;;;;9.63;8.73;;;5.20;99.90;;;;;;6194253;28;20470;-63
2020/12/09 00:30:50;;;;;;;10.90;9.80;;;5.30;99.90;;;;;;6191312;28;20473;-65
2020/12/09 00:33:52;;;;;;;11.07;9.43;;;5.30;99.90;;;;;;6198235;28;20815;-62
2020/12/09 00:36:55;;;;;;;8.80;7.90;;;5.20;99.90;;;;;;6189673;28;20461;-64
2020/12/09 00:39:58;;;;;;;9.10;8.30;;;5.30;99.90;;;;;;6179284;28;20482;-63
2020/12/09 00:43:00;;;;;;;9.47;7.93;;;5.40;99.90;;;;;;6178956;28;20853;-60
2020/12/09 00:46:03;;;;;;;8.87;7.97;;;5.40;99.90;;;;;;6178409;28;20470;-65
2020/12/09 00:49:06;;;;;;;9.17;8.27;;;5.40;99.90;;;;;;6178979;28;20474;-65
2020/12/09 00:52:08;;;;;;;8.23;7.40;;;5.50;99.90;;;;;;6196924;28;20480;-67
2020/12/09 00:55:14;;;;;;;9.70;8.27;;;5.40;99.90;;;;;;6203033;28;20500;-65
2020/12/09 00:58:17;;;;;;;7.53;6.87;;;5.40;99.90;;;;;;6203195;28;20473;-64
2020/12/09 01:01:20;;;;;;;7.70;6.97;;;5.40;99.90;;;;;;6203179;28;20477;-63
2020/12/09 01:04:22;;;;;;;7.60;6.90;;;5.40;99.90;;;;;;6202717;28;20829;-62
2020/12/09 01:07:24;;;;;;;7.23;6.63;;;5.30;99.90;;;;;;6202751;28;20972;-67
2020/12/09 01:10:26;;;;;;;8.50;7.70;;;5.30;99.90;;;;;;6154195;28;20479;-67
2020/12/09 01:13:29;;;;;;;8.40;7.60;;;5.30;99.90;;;;;;6169873;28;20473;-65
2020/12/09 01:16:32;;;;;;;7.87;7.07;;;5.20;99.90;;;;;;6184026;28;20985;-62
2020/12/09 01:19:34;;;;;;;7.80;7.10;;;5.30;99.90;;;;;;6188012;28;20473;-62
2020/12/09 01:22:36;;;;;;;7.53;6.93;;;5.30;99.90;;;;;;6187724;28;20470;-62
2020/12/09 01:25:38;;;;;;;8.47;7.57;;;5.30;99.90;;;;;;6194499;28;20478;-62
2020/12/09 01:28:40;;;;;;;8.37;7.67;;;5.40;99.90;;;;;;6200692;28;20492;-60
2020/12/09 01:31:43;;;;;;;8.50;7.70;;;5.40;99.90;;;;;;6193801;28;20488;-62
2020/12/09 01:34:46;;;;;;;8.20;7.50;;;5.40;99.90;;;;;;6202281;28;20554;-62
2020/12/09 01:37:48;;;;;;;8.23;7.50;;;5.50;99.90;;;;;;6201255;28;20469;-62
2020/12/09 01:40:50;;;;;;;9.00;8.10;;;5.50;99.90;;;;;;6201844;28;20893;-61
2020/12/09 01:43:54;;;;;;;7.77;7.10;;;5.50;99.90;;;;;;6201867;28;20477;-61
2020/12/09 01:46:58;;;;;;;8.73;7.83;;;5.50;99.90;;;;;;6201886;28;20492;-61
2020/12/09 01:50:00;;;;;;;11.37;9.40;;;5.50;99.90;;;;;;6201989;28;20476;-61
2020/12/09 01:53:03;;;;;;;8.23;6.97;;;5.50;99.90;;;;;;6201883;28;20820;-61
2020/12/09 01:56:05;;;;;;;8.97;7.90;;;5.40;99.90;;;;;;6201706;28;20603;-61
2020/12/09 01:59:07;;;;;;;9.53;8.67;;;5.40;99.90;;;;;;6201702;28;20965;-61
2020/12/09 02:02:11;;;;;;;9.30;8.40;;;5.40;99.90;;;;;;6202606;28;20481;-61
2020/12/09 02:05:13;;;;;;;10.80;9.83;;;5.40;99.90;;;;;;6201572;28;20472;-61
2020/12/09 02:08:15;;;;;;;10.23;8.87;;;5.40;99.90;;;;;;6197068;28;20473;-61
2020/12/09 02:11:17;;;;;;;11.37;9.90;;;5.40;99.90;;;;;;6189750;28;20473;-61
2020/12/09 02:14:23;;;;;;;10.50;9.40;;;5.50;99.90;;;;;;6185527;28;20470;-61
2020/12/09 02:17:26;;;;;;;10.33;9.33;;;5.50;99.90;;;;;;6190128;28;20571;-61
2020/12/09 02:20:28;;;;;;;10.10;9.20;;;5.50;99.90;;;;;;6201090;28;20473;-64
2020/12/09 02:23:34;;;;;;;10.60;9.20;;;5.50;99.90;;;;;;6201850;28;20543;-60
2020/12/09 02:26:41;;;;;;;11.10;9.20;;;5.50;99.90;;;;;;6200997;28;20445;-60
2020/12/09 02:29:44;;;;;;;10.17;9.13;;;5.50;99.90;;;;;;6201292;28;20609;-60
2020/12/09 02:32:46;;;;;;;10.00;9.00;;;5.40;99.90;;;;;;6197167;28;20453;-60
2020/12/09 02:35:49;;;;;;;9.93;8.83;;;5.40;99.90;;;;;;6201112;28;20798;-60
2020/12/09 02:38:53;;;;;;;10.60;9.60;;;5.40;99.90;;;;;;6201344;28;20465;-60
2020/12/09 02:41:55;;;;;;;11.10;9.80;;;5.50;99.90;;;;;;6200709;28;20958;-60
2020/12/09 02:44:57;;;;;;;10.80;8.87;;;5.50;99.90;;;;;;6200810;28;20786;-60
2020/12/09 02:47:59;;;;;;;9.90;9.10;;;5.50;99.90;;;;;;6200791;28;20791;-60
2020/12/09 02:51:01;;;;;;;10.33;9.33;;;5.60;99.90;;;;;;6200898;28;20460;-60
2020/12/09 02:54:04;;;;;;;9.97;8.93;;;5.60;99.90;;;;;;6201215;28;20465;-60
2020/12/09 02:57:06;;;;;;;9.43;8.53;;;5.70;99.90;;;;;;6200891;28;20469;-60
2020/12/09 03:00:08;;;;;;;9.53;8.70;;;5.70;99.90;;;;;;6201018;28;20853;-60
2020/12/09 03:03:11;;;;;;;9.70;8.80;;;5.70;99.90;;;;;;6201164;28;20461;-61
2020/12/09 03:06:13;;;;;;;9.77;8.87;;;5.80;99.90;;;;;;6201019;28;20473;-61
2020/12/09 03:09:16;;;;;;;10.87;9.87;;;5.70;99.90;;;;;;6201395;28;20500;-62
2020/12/09 03:12:18;;;;;;;9.70;8.40;;;5.70;99.90;;;;;;6205380;28;20817;-59
2020/12/09 03:15:21;;;;;;;10.43;9.47;;;5.80;99.90;;;;;;6205689;28;20477;-61
2020/12/09 03:18:23;;;;;;;10.63;8.53;;;5.80;99.90;;;;;;6205561;28;20495;-61
2020/12/09 03:21:25;;;;;;;9.50;8.50;;;5.80;99.90;;;;;;6182817;28;20504;-61
2020/12/09 03:24:28;;;;;;;11.00;9.60;;;5.80;99.90;;;;;;6181576;28;20484;-61
2020/12/09 03:27:30;;;;;;;9.80;8.80;;;5.70;99.90;;;;;;6180618;28;20564;-61
2020/12/09 03:30:33;;;;;;;9.47;8.57;;;5.70;99.90;;;;;;6194745;28;20468;-61
2020/12/09 03:33:35;;;;;;;11.03;9.90;;;5.60;99.90;;;;;;6198867;28;20487;-61
2020/12/09 03:36:38;;;;;;;9.77;8.80;;;5.60;99.90;;;;;;6195941;28;20473;-62
2020/12/09 03:39:41;;;;;;;10.80;9.77;;;5.60;99.90;;;;;;6195935;28;20462;-61
2020/12/09 03:42:43;;;;;;;9.60;8.53;;;5.60;99.90;;;;;;6180590;28;20482;-60
2020/12/09 03:45:45;;;;;;;9.23;8.33;;;5.70;99.90;;;;;;6181080;28;20926;-61
2020/12/09 03:48:48;;;;;;;10.07;9.07;;;5.70;99.90;;;;;;6180505;28;20473;-61
2020/12/09 03:51:50;;;;;;;14.33;9.30;;;5.60;99.90;;;;;;6180634;28;20478;-61
2020/12/09 03:54:53;;;;;;;10.17;9.20;;;5.60;99.90;;;;;;6180236;28;20932;-60
2020/12/09 03:57:58;;;;;;;11.03;9.30;;;5.70;99.90;;;;;;6180410;28;20480;-60
2020/12/09 04:01:01;;;;;;;11.20;10.10;;;5.80;99.90;;;;;;6180355;28;20516;-61
2020/12/09 04:04:03;;;;;;;10.53;9.53;;;5.70;99.90;;;;;;6179996;28;20978;-60
2020/12/09 04:07:05;;;;;;;13.77;11.73;;;5.70;99.90;;;;;;6180222;28;20477;-60
2020/12/09 04:10:08;;;;;;;11.57;10.47;;;5.70;99.90;;;;;;6179901;28;20989;-60
2020/12/09 04:13:10;;;;;;;11.73;10.50;;;5.70;99.90;;;;;;6179994;28;20830;-60
2020/12/09 04:16:15;;;;;;;13.03;10.83;;;5.70;99.90;;;;;;6180211;28;20481;-61
2020/12/09 04:19:17;;;;;;;14.20;11.57;;;5.70;99.90;;;;;;6179957;28;20484;-61
2020/12/09 04:22:19;;;;;;;12.77;11.47;;;5.80;99.90;;;;;;6178504;28;20504;-61
2020/12/09 04:25:22;;;;;;;12.07;10.10;;;5.80;99.90;;;;;;6179745;28;20478;-61
2020/12/09 04:28:25;;;;;;;12.00;10.70;;;5.90;99.90;;;;;;6179791;28;20492;-62
2020/12/09 04:31:27;;;;;;;11.60;10.40;;;5.90;99.90;;;;;;6179569;28;20494;-61
2020/12/09 04:34:29;;;;;;;12.73;11.30;;;5.90;99.90;;;;;;6179483;28;20484;-61
2020/12/09 04:37:31;;;;;;;13.30;12.00;;;5.90;99.90;;;;;;6179947;28;20473;-61
2020/12/09 04:40:35;;;;;;;11.80;10.60;;;5.90;99.90;;;;;;6179384;28;20579;-60
2020/12/09 04:43:37;;;;;;;13.50;11.10;;;5.90;99.90;;;;;;6170666;28;20489;-60
2020/12/09 04:46:45;;;;;;;11.80;10.60;;;5.80;99.90;;;;;;6179520;28;20489;-60
2020/12/09 04:49:48;;;;;;;12.80;11.27;;;5.80;99.90;;;;;;6179168;28;20489;-60
2020/12/09 04:53:01;;;;;;;11.80;10.60;;;5.80;99.90;;;;;;6179181;28;20496;-60
2020/12/09 04:56:04;;;;;;;12.70;11.27;;;5.80;99.90;;;;;;6179505;28;20481;-60
2020/12/09 04:59:14;;;;;;;11.80;10.60;;;5.80;99.90;;;;;;6178991;28;20473;-61
2020/12/09 05:02:16;;;;;;;12.33;10.60;;;5.80;99.90;;;;;;6178866;28;20486;-60
2020/12/09 05:05:23;;;;;;;9.90;8.90;;;5.80;99.90;;;;;;6178634;28;20811;-62
2020/12/09 05:08:30;;;;;;;10.17;9.20;;;5.90;99.90;;;;;;6179188;28;20497;-61
2020/12/09 05:11:33;;;;;;;10.83;8.50;;;5.90;99.90;;;;;;6178660;28;20462;-62
2020/12/09 05:14:38;;;;;;;9.50;8.60;;;5.90;99.90;;;;;;6178909;28;20937;-63
2020/12/09 05:18:03;;;;;;;10.17;8.80;;;5.90;99.90;;;;;;6178582;28;20427;-63
2020/12/09 05:21:14;;;;;;;10.40;7.80;;;5.90;99.90;;;;;;6176215;28;20556;-62
2020/12/09 05:24:18;;;;;;;9.80;8.90;;;5.80;99.90;;;;;;6178544;28;20485;-62
2020/12/09 05:27:21;;;;;;;8.80;7.90;;;5.70;99.90;;;;;;6178534;28;20485;-62
2020/12/09 05:30:44;;;;;;;9.40;8.30;;;5.50;99.90;;;;;;6178335;28;20486;-63
2020/12/09 05:33:47;;;;;;;10.97;8.67;;;5.40;99.90;;;;;;6177758;28;20481;-63
2020/12/09 05:36:51;;;;;;;8.77;7.87;;;5.30;99.90;;;;;;6178163;28;20529;-63
2020/12/09 05:39:55;;;;;;;11.87;8.93;;;5.20;99.90;;;;;;6178282;28;20493;-63
2020/12/09 05:42:58;;;;;;;8.73;7.93;;;5.20;99.90;;;;;;6178044;28;20484;-63
2020/12/09 05:46:08;;;;;;;9.87;7.77;;;5.10;99.90;;;;;;6169001;28;20930;-64
2020/12/09 05:49:20;;;;;;;8.50;7.70;;;5.00;99.90;;;;;;6177744;28;20482;-63
2020/12/09 05:52:22;;;;;;;8.60;7.80;;;5.00;99.90;;;;;;6177528;28;20984;-63
2020/12/09 05:55:24;;;;;;;10.87;8.70;;;5.00;99.90;;;;;;6178080;28;20465;-63
2020/12/09 05:58:29;;;;;;;9.37;8.37;;;5.00;99.90;;;;;;6177736;28;20480;-64
2020/12/09 06:01:31;;;;;;;8.47;7.60;;;5.10;99.90;;;;;;6177482;28;20974;-63
2020/12/09 06:04:47;;;;;;;7.90;7.20;;;5.10;99.90;;;;;;6177764;28;20482;-62
2020/12/09 06:07:50;;;;;;;9.93;8.60;;;5.10;99.90;;;;;;6177697;28;20496;-63
2020/12/09 06:11:01;;;;;;;10.57;8.97;;;5.10;99.90;;;;;;6178761;28;20504;-63
2020/12/09 06:14:04;;;;;;;9.27;8.27;;;5.10;99.90;;;;;;6178011;28;20966;-61
2020/12/09 06:17:06;;;;;;;9.27;8.37;;;5.10;99.90;;;;;;6177775;28;20477;-60
2020/12/09 06:20:11;;;;;;;9.30;8.40;;;5.20;99.90;;;;;;6177357;28;20489;-60
2020/12/09 06:23:14;;;;;;;8.00;7.30;;;5.20;99.90;;;;;;6178258;28;20953;-61
2020/12/09 06:26:16;;;;;;;7.80;7.10;;;5.20;99.90;;;;;;6180678;28;20474;-61
2020/12/09 06:29:24;;;;;;;7.63;6.83;;;5.10;99.90;;;;;;6179527;28;20545;-60
2020/12/09 06:32:26;;;;;;;7.40;6.70;;;5.20;99.90;;;;;;6177999;28;20984;-61
2020/12/09 06:35:28;;;;;;;7.13;6.53;;;5.20;99.90;;;;;;6177494;28;20485;-62
2020/12/09 06:38:30;;;;;;;7.60;6.90;;;5.20;99.90;;;;;;6177229;28;20470;-60
2020/12/09 06:41:34;;;;;;;6.33;5.73;;;5.10;99.90;;;;;;6176784;28;20937;-61
2020/12/09 06:44:50;;;;;;;7.17;6.47;;;5.10;99.90;;;;;;6176877;28;20457;-62
2020/12/09 06:48:09;;;;;;;8.03;7.30;;;5.10;99.90;;;;;;6172476;28;20650;-61
2020/12/09 06:51:36;;;;;;;8.13;7.33;;;5.10;99.90;;;;;;6177030;28;20485;-61
2020/12/09 06:54:40;;;;;;;7.90;7.10;;;5.10;99.90;;;;;;6177557;28;20590;-60
2020/12/09 06:57:42;;;;;;;6.60;6.00;;;5.10;99.90;;;;;;6177549;28;20621;-62
2020/12/09 07:00:58;;;;;;;9.00;6.77;;;5.10;99.90;;;;;;6177815;28;20488;-61
2020/12/09 07:04:00;;;;;;;7.57;6.87;;;5.10;99.90;;;;;;6180405;28;20470;-60
2020/12/09 07:07:02;;;;;;;6.67;5.80;;;5.00;99.90;;;;;;6176041;28;20478;-60
2020/12/09 07:10:11;;;;;;;7.00;6.40;;;5.00;99.90;;;;;;6174781;28;21231;-60
2020/12/09 07:13:14;;;;;;;7.50;6.80;;;4.90;99.90;;;;;;6175158;28;20474;-61
2020/12/09 07:16:17;;;;;;;10.07;8.27;;;4.90;99.90;;;;;;6175229;28;20813;-61
2020/12/09 07:19:21;;;;;;;10.10;7.90;;;4.90;99.90;;;;;;6176246;28;20470;-61
2020/12/09 07:22:24;;;;;;;8.43;7.63;;;4.80;99.90;;;;;;6176734;28;20485;-62
2020/12/09 07:25:27;;;;;;;9.00;7.77;;;4.70;99.90;;;;;;6176913;28;20474;-62
2020/12/09 07:28:32;;;;;;;8.40;7.50;;;4.60;99.90;;;;;;6176266;28;20493;-62
2020/12/09 07:31:46;;;;;;;7.83;6.67;;;4.60;99.90;;;;;;6176478;28;20817;-62
2020/12/09 07:34:51;;;;;;;7.23;6.53;;;4.60;99.90;;;;;;6176422;28;20470;-61
2020/12/09 07:37:56;;;;;;;10.33;8.30;;;4.70;99.90;;;;;;6176561;28;20477;-61
2020/12/09 07:40:59;;;;;;;8.57;7.30;;;4.60;99.90;;;;;;6175913;28;20576;-61
2020/12/09 07:44:03;;;;;;;8.80;7.60;;;4.80;99.90;;;;;;6175015;28;20564;-61
2020/12/09 07:47:06;;;;;;;8.03;7.23;;;4.70;99.90;;;;;;6173797;28;20591;-61
2020/12/09 07:50:08;;;;;;;6.60;6.00;;;4.80;99.90;;;;;;6173420;28;21039;-62
2020/12/09 07:53:12;;;;;;;6.70;6.10;;;4.80;99.90;;;;;;6173975;28;20501;-61
2020/12/09 07:56:15;;;;;;;7.43;6.80;;;4.80;99.90;;;;;;6176025;28;20481;-61
2020/12/09 07:59:17;;;;;;;5.70;5.20;;;4.90;99.90;;;;;;6179102;28;20477;-62
2020/12/09 08:02:21;;;;;;;6.30;5.80;;;4.90;99.90;;;;;;6180295;28;20792;-61
2020/12/09 08:05:25;;;;;;;9.03;7.60;;;4.90;99.90;;;;;;6180314;28;20492;-61
2020/12/09 08:08:27;;;;;;;7.70;6.73;;;4.80;99.90;;;;;;6179957;28;20485;-62
2020/12/09 08:11:37;;;;;;;7.63;6.70;;;4.90;99.90;;;;;;6180012;28;20509;-61
2020/12/09 08:14:40;;;;;;;7.23;6.30;;;4.90;99.90;;;;;;6180536;28;20450;-61
2020/12/09 08:17:48;;;;;;;5.90;5.30;;;4.90;99.90;;;;;;6180167;28;20456;-61
2020/12/09 08:20:51;;;;;;;7.83;5.97;;;4.90;99.90;;;;;;6179656;28;20871;-61
2020/12/09 08:23:54;;;;;;;13.43;12.07;;;4.90;99.90;;;;;;6180196;28;20470;-62
2020/12/09 08:26:56;;;;;;;9.03;6.83;;;4.90;99.90;;;;;;6181644;28;20461;-62
2020/12/09 08:29:59;;;;;;;6.93;6.27;;;4.90;99.90;;;;;;6197185;28;20861;-65
2020/12/09 08:33:15;;;;;;;6.00;5.50;;;4.90;99.90;;;;;;6204499;28;20469;-62
2020/12/09 08:36:18;;;;;;;8.10;7.30;;;4.90;99.90;;;;;;6204180;28;20468;-62
2020/12/09 08:39:21;;;;;;;6.70;5.93;;;4.90;99.90;;;;;;6203799;28;20479;-63
2020/12/09 08:42:23;;;;;;;6.80;6.20;;;4.90;99.90;;;;;;6203189;28;20477;-63
2020/12/09 08:45:26;;;;;;;8.17;7.37;;;5.00;99.90;;;;;;6203702;28;20461;-64
2020/12/09 08:48:29;;;;;;;8.47;7.67;;;5.00;99.90;;;;;;6203158;28;20480;-63
2020/12/09 08:51:33;;;;;;;8.10;7.20;;;5.00;99.90;;;;;;6203621;28;20474;-60
2020/12/09 08:54:36;;;;;;;9.43;7.40;;;5.00;99.90;;;;;;6203704;28;20480;-64
2020/12/09 08:57:38;;;;;;;8.10;7.40;;;4.90;99.90;;;;;;6198652;28;20823;-61
2020/12/09 09:00:41;;;;;;;6.43;5.47;;;4.90;99.90;;;;;;6203590;28;20477;-61
2020/12/09 09:03:46;;;;;;;6.63;6.03;;;4.90;99.90;;;;;;6203349;28;20487;-61
2020/12/09 09:06:48;;;;;;;6.10;5.60;;;4.90;99.90;;;;;;6203009;28;20500;-61
2020/12/09 09:09:50;;;;;;;7.13;6.40;;;4.90;99.90;;;;;;6178313;28;20474;-61
2020/12/09 09:12:52;;;;;;;5.80;5.30;;;4.90;99.90;;;;;;6162664;28;20481;-63
2020/12/09 09:15:55;;;;;;;6.20;4.93;;;4.80;99.90;;;;;;6178351;28;20485;-65
2020/12/09 09:18:58;;;;;;;6.53;5.93;;;4.80;99.90;;;;;;6155442;28;20525;-64
2020/12/09 09:22:00;;;;;;;7.67;5.83;;;4.80;99.90;;;;;;6154043;29;20495;-64
2020/12/09 09:25:04;;;;;;;6.17;5.60;;;4.80;99.90;;;;;;6157776;28;20553;-64
2020/12/09 09:28:07;;;;;;;6.43;5.83;;;4.80;99.90;;;;;;6178033;28;20488;-63
2020/12/09 09:31:09;;;;;;;6.37;5.80;;;4.90;99.90;;;;;;6177589;28;20474;-61
2020/12/09 09:34:12;;;;;;;7.47;5.93;;;5.00;99.90;;;;;;6177902;28;20477;-61
2020/12/09 09:37:14;;;;;;;5.60;5.10;;;5.00;99.90;;;;;;6175738;28;20477;-61
2020/12/09 09:40:17;;;;;;;6.90;5.47;;;4.90;99.90;;;;;;6175405;28;20492;-60
2020/12/09 09:43:25;;;;;;;4.87;4.50;;;4.90;99.90;;;;;;6161902;28;20462;-61
2020/12/09 09:46:27;;;;;;;5.10;4.60;;;4.90;99.90;;;;;;6151484;28;20830;-61
2020/12/09 09:49:31;;;;;;;5.60;5.10;;;4.90;99.90;;;;;;6151466;29;20569;-61
2020/12/09 09:52:34;;;;;;;5.97;5.47;;;5.00;99.90;;;;;;6152648;29;20823;-60
2020/12/09 09:55:36;;;;;;;5.50;5.10;;;5.10;99.90;;;;;;6153520;29;20474;-61
2020/12/09 09:58:39;;;;;;;6.03;5.33;;;5.20;99.90;;;;;;6153269;29;20470;-60
2020/12/09 10:01:41;;;;;;;5.80;5.30;;;5.30;99.90;;;;;;6148844;29;20482;-61
2020/12/09 10:04:45;;;;;;;5.87;5.37;;;5.40;99.90;;;;;;6152089;28;21015;-61
2020/12/09 10:07:48;;;;;;;4.77;4.43;;;5.40;99.90;;;;;;6153608;29;20486;-62
2020/12/09 10:10:51;;;;;;;7.07;5.93;;;5.40;99.90;;;;;;6153249;28;20518;-61
2020/12/09 10:13:56;;;;;;;8.23;5.10;;;5.50;99.90;;;;;;6153354;29;20561;-60
2020/12/09 10:16:59;;;;;;;5.60;5.10;;;5.60;99.90;;;;;;6161870;28;20973;-61
2020/12/09 10:20:07;;;;;;;5.50;5.00;;;5.60;99.90;;;;;;6176791;28;20501;-60
2020/12/09 10:23:12;;;;;;;7.00;4.90;;;5.70;99.90;;;;;;6176870;28;20482;-61
2020/12/09 10:26:14;;;;;;;8.33;5.47;;;5.70;99.90;;;;;;6177039;28;20488;-64
2020/12/09 10:29:16;;;;;;;7.33;6.60;;;5.80;99.90;;;;;;6176515;28;20486;-63
2020/12/09 10:32:18;;;;;;;6.33;5.77;;;5.70;99.90;;;;;;6176490;28;20813;-63
2020/12/09 10:35:21;;;;;;;9.53;5.87;;;5.60;99.90;;;;;;6176399;28;20484;-64
2020/12/09 10:38:24;;;;;;;8.60;7.70;;;5.40;99.90;;;;;;6184963;28;20492;-63
2020/12/09 10:41:27;;;;;;;12.03;8.17;;;5.40;99.90;;;;;;6182317;28;20478;-64
2020/12/09 10:44:29;;;;;;;10.70;9.43;;;5.40;99.90;;;;;;6185432;28;20484;-64
2020/12/09 10:47:32;;;;;;;17.50;11.03;;;5.40;99.90;;;;;;6187304;28;20589;-63
2020/12/09 10:50:35;;;;;;;16.70;10.23;;;5.30;99.90;;;;;;6188402;28;20984;-62
2020/12/09 10:53:37;;;;;;;12.73;9.47;;;5.20;99.90;;;;;;6184580;28;20450;-63
2020/12/09 10:56:40;;;;;;;8.30;7.40;;;5.20;99.90;;;;;;6183683;28;20441;-65
2020/12/09 10:59:43;;;;;;;9.10;6.27;;;5.30;99.90;;;;;;6188864;28;20761;-63
2020/12/09 11:02:45;;;;;;;8.07;5.60;;;5.30;99.90;;;;;;6182412;28;20442;-63
2020/12/09 11:05:49;;;;;;;6.47;5.67;;;5.40;99.90;;;;;;6184272;28;20474;-64
2020/12/09 11:08:51;;;;;;;6.63;6.03;;;5.30;99.90;;;;;;6188460;28;20781;-63
2020/12/09 11:11:54;;;;;;;6.93;5.93;;;5.40;99.90;;;;;;6183945;28;20461;-62
2020/12/09 11:14:58;;;;;;;6.30;5.70;;;5.40;99.90;;;;;;6187738;28;20505;-61
2020/12/09 11:18:01;;;;;;;6.73;6.07;;;5.40;99.90;;;;;;6189466;28;20476;-62
2020/12/09 11:21:04;;;;;;;7.63;6.83;;;5.30;99.90;;;;;;6200030;28;20474;-62
2020/12/09 11:24:07;;;;;;;7.50;6.33;;;5.40;99.90;;;;;;6200239;28;20610;-61
2020/12/09 11:27:10;;;;;;;6.50;5.77;;;5.40;99.90;;;;;;6180486;28;20466;-63
2020/12/09 11:30:12;;;;;;;7.20;6.50;;;5.40;99.90;;;;;;6176707;28;20810;-62
2020/12/09 11:33:15;;;;;;;6.10;5.50;;;5.40;99.90;;;;;;6180956;28;20480;-61
2020/12/09 11:36:22;;;;;;;8.33;7.50;;;5.40;99.90;;;;;;6180934;28;20527;-61
2020/12/09 11:39:25;;;;;;;7.77;6.97;;;5.40;99.90;;;;;;6181073;28;20474;-62
2020/12/09 11:42:27;;;;;;;8.50;7.37;;;5.40;99.90;;;;;;6180139;28;20810;-62
2020/12/09 11:45:31;;;;;;;7.23;6.13;;;5.30;99.90;;;;;;6180214;28;20820;-63
2020/12/09 11:48:33;;;;;;;6.57;5.63;;;5.30;99.90;;;;;;6180531;28;20470;-61
2020/12/09 11:51:39;;;;;;;5.83;5.37;;;5.30;99.90;;;;;;6180267;28;20490;-62
2020/12/09 11:54:42;;;;;;;6.77;6.07;;;5.30;99.90;;;;;;6180250;28;20548;-61
2020/12/09 11:57:44;;;;;;;6.40;5.73;;;5.20;99.90;;;;;;6180287;28;20473;-63
2020/12/09 12:00:47;;;;;;;6.63;6.03;;;5.20;99.90;;;;;;6179562;28;20984;-62
2020/12/09 12:03:49;;;;;;;7.07;6.07;;;5.20;99.90;;;;;;6178514;28;20999;-62
2020/12/09 12:06:52;;;;;;;5.77;5.33;;;5.20;99.90;;;;;;6177861;28;20533;-62
2020/12/09 12:09:55;;;;;;;5.77;5.20;;;5.20;99.90;;;;;;6171148;28;20482;-61
2020/12/09 12:12:57;;;;;;;6.43;5.70;;;5.20;99.90;;;;;;6177650;28;21055;-61
2020/12/09 12:15:59;;;;;;;7.73;6.83;;;5.20;99.90;;;;;;6178363;28;20555;-62
2020/12/09 12:19:05;;;;;;;7.50;6.80;;;5.10;99.90;;;;;;6178866;28;20985;-62
2020/12/09 12:22:08;;;;;;;6.67;6.03;;;5.10;99.90;;;;;;6179344;28;20981;-62
2020/12/09 12:25:10;;;;;;;7.17;6.40;;;5.10;99.90;;;;;;6179939;28;20478;-63
2020/12/09 12:28:12;;;;;;;7.90;7.10;;;5.10;99.90;;;;;;6179657;28;20470;-62
2020/12/09 12:31:17;;;;;;;7.33;6.70;;;5.10;99.90;;;;;;6179195;28;20477;-62
2020/12/09 12:34:19;;;;;;;7.97;7.23;;;5.10;99.90;;;;;;6179227;28;20552;-62
2020/12/09 12:37:22;;;;;;;7.40;6.80;;;5.10;99.90;;;;;;6179556;28;20482;-61
2020/12/09 12:40:24;;;;;;;7.20;6.53;;;5.10;99.90;;;;;;6178862;28;20567;-60
2020/12/09 12:43:27;;;;;;;9.30;7.27;;;5.00;99.90;;;;;;6178055;28;20540;-60
2020/12/09 12:46:29;;;;;;;7.30;6.70;;;5.00;99.90;;;;;;6179137;28;20497;-60
2020/12/09 12:49:32;;;;;;;7.53;6.10;;;5.00;99.90;;;;;;6179015;28;20488;-59
2020/12/09 12:52:35;;;;;;;6.80;6.20;;;5.00;99.90;;;;;;6178972;28;20820;-61
2020/12/09 12:55:38;;;;;;;7.43;6.93;;;4.90;99.90;;;;;;6179074;28;20623;-60
2020/12/09 12:58:42;;;;;;;7.63;6.87;;;4.90;99.90;;;;;;6178859;28;20489;-60
2020/12/09 13:01:45;;;;;;;6.90;6.30;;;4.80;99.90;;;;;;6178841;28;20477;-60
2020/12/09 13:04:47;;;;;;;8.10;7.33;;;4.90;99.90;;;;;;6178628;28;20478;-61
2020/12/09 13:07:51;;;;;;;7.90;6.67;;;4.90;99.90;;;;;;6179331;28;20970;-64
2020/12/09 13:10:54;;;;;;;11.07;6.47;;;4.80;99.90;;;;;;6163394;28;20479;-60
2020/12/09 13:13:57;;;;;;;9.23;7.90;;;4.90;99.90;;;;;;6145374;29;20618;-61
2020/12/09 13:16:59;;;;;;;8.23;7.27;;;4.90;99.90;;;;;;6168452;28;20473;-60
2020/12/09 13:20:01;;;;;;;6.83;6.10;;;4.80;99.90;;;;;;6177939;28;20480;-60
2020/12/09 13:23:04;;;;;;;7.77;6.93;;;4.80;99.90;;;;;;6177832;28;21032;-62
2020/12/09 13:26:07;;;;;;;7.07;6.47;;;4.90;99.90;;;;;;6178346;28;21034;-65
2020/12/09 13:29:10;;;;;;;6.60;6.10;;;4.90;99.90;;;;;;6178115;28;20602;-63
2020/12/09 13:32:12;;;;;;;7.77;7.07;;;4.90;99.90;;;;;;6177869;28;20482;-66
2020/12/09 13:35:14;;;;;;;5.37;5.00;;;4.90;99.90;;;;;;6177726;28;20493;-64
2020/12/09 13:38:17;;;;;;;7.47;6.57;;;4.90;99.90;;;;;;6177683;28;20876;-66
2020/12/09 13:41:20;;;;;;;5.93;5.43;;;5.00;99.90;;;;;;6177226;28;20481;-64
2020/12/09 13:44:22;;;;;;;6.70;6.10;;;5.00;99.90;;;;;;6176815;28;20549;-64
2020/12/09 13:47:24;;;;;;;6.53;6.03;;;5.00;99.90;;;;;;6177018;28;20473;-62
2020/12/09 13:50:27;;;;;;;7.13;6.53;;;5.00;99.90;;;;;;6174948;28;20474;-63
2020/12/09 13:53:30;;;;;;;8.83;7.63;;;5.00;99.90;;;;;;6176480;28;20466;-64
2020/12/09 13:56:53;;;;;;;8.63;7.87;;;4.90;99.90;;;;;;6176098;28;21026;-63
2020/12/09 13:59:55;;;;;;;11.30;10.30;;;4.90;99.90;;;;;;6176560;28;20484;-61
2020/12/09 14:02:58;;;;;;;11.60;10.40;;;4.80;99.90;;;;;;6177010;28;20458;-65
2020/12/09 14:06:00;;;;;;;9.73;8.80;;;4.80;99.90;;;;;;6177172;28;20517;-59
2020/12/09 14:09:04;;;;;;;11.20;7.70;;;4.70;99.90;;;;;;6176844;28;20485;-63
2020/12/09 14:12:06;;;;;;;9.57;8.67;;;4.70;99.90;;;;;;6176754;28;20470;-67
2020/12/09 14:15:08;;;;;;;9.67;8.67;;;4.60;99.90;;;;;;6168190;28;20489;-64
2020/12/09 14:18:10;;;;;;;9.03;8.00;;;4.60;99.90;;;;;;6176876;28;20472;-66
2020/12/09 14:21:13;;;;;;;10.53;9.40;;;4.60;99.90;;;;;;6176911;28;20480;-65
2020/12/09 14:24:16;;;;;;;10.23;9.23;;;4.60;99.90;;;;;;6177402;28;20469;-60
2020/12/09 14:27:18;;;;;;;10.73;9.70;;;4.60;99.90;;;;;;6176926;28;20462;-61
2020/12/09 14:30:21;;;;;;;10.47;9.37;;;4.60;99.90;;;;;;6176307;28;20541;-64
2020/12/09 14:33:23;;;;;;;9.63;8.73;;;4.60;99.90;;;;;;6176553;28;20556;-64
2020/12/09 14:36:25;;;;;;;10.93;9.93;;;4.60;99.90;;;;;;6177080;28;20480;-63
2020/12/09 14:39:28;;;;;;;10.37;9.33;;;4.60;99.90;;;;;;6176583;28;20949;-63
2020/12/09 14:42:31;;;;;;;11.80;9.60;;;4.50;99.90;;;;;;6176279;28;20836;-62
2020/12/09 14:45:33;;;;;;;11.37;10.33;;;4.50;99.90;;;;;;6176129;28;20481;-62
2020/12/09 14:48:35;;;;;;;13.67;10.17;;;4.50;99.90;;;;;;6175852;28;20510;-64
2020/12/09 14:51:41;;;;;;;12.40;10.00;;;4.60;99.90;;;;;;6176195;28;20477;-64
2020/12/09 14:54:45;;;;;;;11.10;9.93;;;4.60;99.90;;;;;;6174432;28;20950;-60
2020/12/09 14:57:47;;;;;;;9.60;8.60;;;4.60;99.90;;;;;;6176291;28;20480;-59
2020/12/09 15:00:49;;;;;;;9.80;7.97;;;4.60;99.90;;;;;;6177375;28;20569;-60
2020/12/09 15:03:52;;;;;;;9.53;8.47;;;4.70;99.90;;;;;;6179046;28;20485;-60
2020/12/09 15:06:54;;;;;;;10.43;9.30;;;4.70;99.90;;;;;;6179814;28;20476;-60
2020/12/09 15:09:57;;;;;;;8.50;7.30;;;4.70;99.90;;;;;;6179903;28;20473;-60
2020/12/09 15:13:01;;;;;;;8.90;8.07;;;4.70;99.90;;;;;;6196010;28;20480;-60
2020/12/09 15:16:04;;;;;;;8.27;7.50;;;4.50;99.90;;;;;;6191770;28;20466;-61
2020/12/09 15:19:06;;;;;;;7.30;6.60;;;4.60;99.90;;;;;;6197113;28;20472;-60
2020/12/09 15:22:09;;;;;;;8.40;7.17;;;4.60;99.90;;;;;;6205403;28;20488;-60
2020/12/09 15:25:12;;;;;;;10.57;7.10;;;4.60;99.90;;;;;;6205263;28;20558;-60
2020/12/09 15:28:15;;;;;;;7.53;6.53;;;4.50;99.90;;;;;;6205252;28;20469;-61
2020/12/09 15:31:17;;;;;;;8.73;6.97;;;4.60;99.90;;;;;;6205174;28;20479;-60
2020/12/09 15:34:22;;;;;;;6.93;6.27;;;4.60;99.90;;;;;;6204775;28;20520;-60
2020/12/09 15:37:24;;;;;;;7.70;6.93;;;4.60;99.90;;;;;;6204795;28;20483;-60
2020/12/09 15:40:27;;;;;;;8.10;7.30;;;4.50;99.90;;;;;;6204491;28;20483;-59
2020/12/09 15:43:29;;;;;;;9.70;8.70;;;4.60;99.90;;;;;;6204673;28;20488;-60
2020/12/09 15:46:31;;;;;;;9.80;7.63;;;4.50;99.90;;;;;;6192915;28;20584;-59
2020/12/09 15:49:34;;;;;;;8.60;7.00;;;4.40;99.90;;;;;;6190601;28;20474;-59
2020/12/09 15:52:37;;;;;;;9.60;8.50;;;4.40;99.90;;;;;;6188662;28;20470;-60
2020/12/09 15:55:41;;;;;;;6.50;5.87;;;4.30;99.90;;;;;;6192321;28;20584;-61
2020/12/09 15:58:44;;;;;;;12.23;8.70;;;4.30;99.90;;;;;;6191712;28;20576;-60
2020/12/09 16:01:47;;;;;;;10.60;8.47;;;4.20;99.90;;;;;;6191274;28;21003;-61